Time;durP1;ratioP1;P1;durP2;ratioP2;P2;SDS_P1;SDS_P2;PMS_P1;PMS_P2;Temp;Humidity;BMP_temperature;BMP_pressure;BME280_temperature;BME280_humidity;BME280_pressure;Samples;Min_cycle;Max_cycle;Signal;HPM_P1;HPM_P2
2022/06/14 00:01:45;;;;;;;5.60;4.10;;;16.40;99.90;;;;;;6148160;23;20452;-81
2022/06/14 00:04:12;;;;;;;5.47;4.50;;;16.30;99.90;;;;;;6142812;23;20497;-81
2022/06/14 00:06:39;;;;;;;5.60;5.00;;;16.30;99.90;;;;;;6147368;23;20531;-81
2022/06/14 00:09:08;;;;;;;4.40;4.00;;;16.30;99.90;;;;;;6150926;23;20939;-81
2022/06/14 00:11:37;;;;;;;5.00;4.47;;;16.30;99.90;;;;;;6146047;23;20460;-81
2022/06/14 00:14:07;;;;;;;5.33;4.50;;;16.20;99.90;;;;;;6147113;23;20447;-81
2022/06/14 00:16:38;;;;;;;7.90;4.80;;;16.20;99.90;;;;;;6149871;23;20467;-80
2022/06/14 00:19:06;;;;;;;5.73;4.87;;;16.20;99.90;;;;;;6147775;23;21038;-81
2022/06/14 00:21:35;;;;;;;6.00;5.00;;;16.20;99.90;;;;;;6144798;23;20440;-81
2022/06/14 00:24:04;;;;;;;5.67;5.07;;;16.20;99.90;;;;;;6148282;23;20519;-81
2022/06/14 00:26:31;;;;;;;6.20;5.17;;;16.20;99.90;;;;;;6145565;23;20461;-81
2022/06/14 00:28:59;;;;;;;6.40;4.87;;;16.10;99.90;;;;;;6148791;23;20443;-81
2022/06/14 00:31:29;;;;;;;5.70;5.03;;;16.20;99.90;;;;;;6147884;23;20951;-81
2022/06/14 00:33:58;;;;;;;7.07;4.83;;;16.10;99.90;;;;;;6147176;23;20444;-81
2022/06/14 00:36:28;;;;;;;7.50;5.50;;;16.20;99.90;;;;;;6148679;23;20488;-83
2022/06/14 00:38:56;;;;;;;6.40;4.73;;;16.10;99.90;;;;;;6156833;23;20432;-81
2022/06/14 00:41:34;;;;;;;6.17;4.67;;;16.10;99.90;;;;;;6150502;23;20447;-82
2022/06/14 00:44:01;;;;;;;10.23;5.43;;;16.10;99.90;;;;;;6145317;23;20442;-82
2022/06/14 00:46:31;;;;;;;5.40;4.30;;;16.10;99.90;;;;;;6147812;23;20494;-82
2022/06/14 00:49:11;;;;;;;5.30;4.73;;;16.10;99.90;;;;;;6144881;23;20728;-82
2022/06/14 00:51:45;;;;;;;5.63;4.67;;;16.10;99.90;;;;;;6149911;23;20464;-82
2022/06/14 00:54:15;;;;;;;5.33;4.40;;;16.10;99.90;;;;;;6147428;23;20445;-82
2022/06/14 00:56:48;;;;;;;6.23;4.73;;;16.10;99.90;;;;;;6147878;23;20843;-82
2022/06/14 00:59:19;;;;;;;6.70;4.60;;;16.00;99.90;;;;;;6138427;23;21013;-82
2022/06/14 01:01:48;;;;;;;5.20;4.40;;;16.10;99.90;;;;;;6143615;23;20454;-82
2022/06/14 01:04:20;;;;;;;6.40;4.53;;;16.00;99.90;;;;;;6150066;23;20451;-82
2022/06/14 01:06:52;;;;;;;6.67;4.83;;;16.00;99.90;;;;;;6148846;23;20539;-82
2022/06/14 01:09:25;;;;;;;5.83;5.20;;;16.00;99.90;;;;;;6146774;23;20444;-82
2022/06/14 01:11:59;;;;;;;6.70;4.70;;;16.00;99.90;;;;;;6119908;23;20460;-82
2022/06/14 01:14:37;;;;;;;6.20;4.77;;;16.00;99.90;;;;;;6148247;23;20875;-81
2022/06/14 01:17:05;;;;;;;5.33;4.67;;;15.90;99.90;;;;;;6117014;23;20506;-82
2022/06/14 01:19:35;;;;;;;7.10;5.87;;;15.90;99.90;;;;;;6150050;23;20518;-82
2022/06/14 01:22:24;;;;;;;7.17;4.90;;;15.90;99.90;;;;;;6141478;23;20527;-82
2022/06/14 01:24:51;;;;;;;8.23;5.37;;;15.90;99.90;;;;;;6146115;23;20437;-82
2022/06/14 01:27:20;;;;;;;5.40;4.90;;;15.90;99.90;;;;;;6148076;23;20461;-82
2022/06/14 01:29:51;;;;;;;6.00;5.10;;;15.90;99.90;;;;;;6145627;23;20511;-82
2022/06/14 01:32:19;;;;;;;6.37;4.87;;;15.90;99.90;;;;;;6146350;23;20531;-82
2022/06/14 01:34:51;;;;;;;7.97;5.07;;;15.80;99.90;;;;;;6147939;23;20467;-82
2022/06/14 01:37:19;;;;;;;6.60;5.23;;;15.80;99.90;;;;;;6147777;23;20912;-82
2022/06/14 01:39:47;;;;;;;6.30;4.90;;;15.80;99.90;;;;;;6148628;23;20441;-81
2022/06/14 01:42:24;;;;;;;5.50;5.07;;;15.80;99.90;;;;;;6148066;23;20436;-82
2022/06/14 01:45:02;;;;;;;6.13;4.90;;;15.80;99.90;;;;;;6149855;23;20447;-82
2022/06/14 01:47:37;;;;;;;6.13;4.50;;;15.80;99.90;;;;;;6149229;23;20510;-82
2022/06/14 01:53:23;;;;;;;5.47;4.67;;;15.70;99.90;;;;;;6138899;23;20579;-82
2022/06/14 01:55:59;;;;;;;7.33;4.90;;;15.70;99.90;;;;;;6159107;23;20464;-80
2022/06/14 01:58:32;;;;;;;5.97;5.07;;;15.70;99.90;;;;;;6170581;23;20432;-81
2022/06/14 02:01:09;;;;;;;6.00;5.20;;;15.60;99.90;;;;;;6171433;23;20445;-82
2022/06/14 02:06:52;;;;;;;6.13;4.73;;;15.60;99.90;;;;;;6054936;23;20460;-81
2022/06/14 02:09:28;;;;;;;5.43;4.93;;;15.60;99.90;;;;;;6090263;23;20450;-82
2022/06/14 02:12:01;;;;;;;8.23;5.73;;;15.50;99.90;;;;;;6137166;23;20462;-81
2022/06/14 02:14:36;;;;;;;9.27;5.83;;;15.40;99.90;;;;;;6173212;23;20479;-81
2022/06/14 02:17:09;;;;;;;7.60;5.63;;;15.30;99.90;;;;;;6160024;23;20534;-82
2022/06/14 02:19:40;;;;;;;9.37;6.47;;;15.10;99.90;;;;;;6148994;23;20558;-81
2022/06/14 02:22:11;;;;;;;6.80;5.27;;;14.90;99.90;;;;;;6148947;23;21154;-82
2022/06/14 02:24:43;;;;;;;7.17;5.30;;;14.70;99.90;;;;;;6141040;23;20898;-82
2022/06/14 02:27:18;;;;;;;9.43;6.13;;;14.50;99.90;;;;;;6146236;23;20544;-82
2022/06/14 02:29:50;;;;;;;7.77;6.50;;;14.30;99.90;;;;;;6148290;23;20531;-82
2022/06/14 02:32:22;;;;;;;7.67;6.80;;;14.20;99.90;;;;;;6148152;23;20467;-82
2022/06/14 02:34:52;;;;;;;7.80;7.03;;;14.00;99.90;;;;;;6148468;23;20440;-82
2022/06/14 02:37:23;;;;;;;7.97;6.67;;;13.80;99.90;;;;;;6148023;23;20533;-82
2022/06/14 02:39:55;;;;;;;7.45;6.38;;;13.60;99.90;;;;;;6147161;23;20482;-82
2022/06/14 02:42:29;;;;;;;7.43;6.70;;;13.50;99.90;;;;;;6148972;23;20202;-82
2022/06/14 02:45:04;;;;;;;7.13;6.53;;;13.50;99.90;;;;;;6148211;23;20192;-82
2022/06/14 02:47:39;;;;;;;7.20;6.50;;;13.50;99.90;;;;;;6149130;23;20297;-82
2022/06/14 02:50:12;;;;;;;7.03;6.40;;;13.50;99.90;;;;;;6147008;23;20432;-82
2022/06/14 02:52:44;;;;;;;8.20;7.40;;;13.50;99.90;;;;;;6148242;23;20219;-81
2022/06/14 02:55:14;;;;;;;7.33;6.63;;;13.50;99.90;;;;;;6148264;23;20540;-82
2022/06/14 02:57:51;;;;;;;7.53;6.70;;;13.50;99.90;;;;;;6148918;23;20788;-82
2022/06/14 03:00:21;;;;;;;7.93;6.80;;;13.50;99.90;;;;;;6146353;23;20468;-82
2022/06/14 03:02:52;;;;;;;8.43;7.60;;;13.60;99.90;;;;;;6149864;23;20432;-82
2022/06/14 03:05:25;;;;;;;7.77;7.00;;;13.60;99.90;;;;;;6147598;23;20995;-82
2022/06/14 03:07:58;;;;;;;8.80;6.70;;;13.70;99.90;;;;;;6146928;23;20506;-82
2022/06/14 03:10:35;;;;;;;8.37;6.90;;;13.70;99.90;;;;;;6137700;23;20463;-82
2022/06/14 03:13:09;;;;;;;8.60;6.63;;;13.80;99.90;;;;;;6149392;23;20537;-82
2022/06/14 03:15:43;;;;;;;10.53;6.57;;;13.80;99.90;;;;;;6150857;23;20521;-82
2022/06/14 03:18:19;;;;;;;7.27;6.10;;;13.80;99.90;;;;;;6147679;23;20443;-82
2022/06/14 03:20:52;;;;;;;7.83;6.47;;;13.80;99.90;;;;;;6147886;23;20438;-82
2022/06/14 03:23:30;;;;;;;6.47;5.83;;;13.90;99.90;;;;;;6139690;23;20440;-82
2022/06/14 03:26:04;;;;;;;7.23;6.50;;;13.80;99.90;;;;;;6142814;23;20476;-81
2022/06/14 03:28:40;;;;;;;7.50;6.70;;;13.90;99.90;;;;;;6150359;23;20440;-81
2022/06/14 03:31:13;;;;;;;7.10;6.40;;;13.90;99.90;;;;;;6146325;23;20482;-81
2022/06/14 03:33:47;;;;;;;7.47;6.03;;;13.90;99.90;;;;;;6150762;23;20218;-81
2022/06/14 03:36:15;;;;;;;7.23;6.20;;;14.00;99.90;;;;;;6149326;23;20499;-81
2022/06/14 03:38:49;;;;;;;6.50;5.90;;;14.00;99.90;;;;;;6146246;23;20440;-81
2022/06/14 03:41:19;;;;;;;8.17;5.83;;;14.00;99.90;;;;;;6133862;23;21132;-81
2022/06/14 03:43:49;;;;;;;7.10;6.40;;;14.00;99.90;;;;;;6154882;23;20448;-82
2022/06/14 03:46:27;;;;;;;7.00;6.33;;;14.10;99.90;;;;;;6141104;23;20484;-81
2022/06/14 03:49:08;;;;;;;7.10;5.97;;;14.10;99.90;;;;;;6131838;23;20440;-82
2022/06/14 03:51:56;;;;;;;7.13;6.40;;;14.10;99.90;;;;;;6145998;23;20433;-81
2022/06/14 03:54:40;;;;;;;6.47;5.83;;;14.10;99.90;;;;;;6149266;23;20556;-81
2022/06/14 03:57:17;;;;;;;7.20;6.47;;;14.10;99.90;;;;;;6138512;23;20456;-81
2022/06/14 04:00:00;;;;;;;8.15;6.40;;;14.00;99.90;;;;;;6146850;23;20527;-81
2022/06/14 04:02:56;;;;;;;8.27;6.10;;;13.90;99.90;;;;;;6145880;23;20198;-82
2022/06/14 04:05:37;;;;;;;6.93;6.33;;;13.90;99.90;;;;;;6150511;23;21038;-82
2022/06/14 04:08:17;;;;;;;6.68;6.07;;;13.90;99.90;;;;;;6149984;23;20437;-81
2022/06/14 04:10:50;;;;;;;12.00;6.77;;;13.90;99.90;;;;;;6149993;23;20191;-81
2022/06/14 04:13:25;;;;;;;7.97;6.70;;;13.90;99.90;;;;;;6146492;23;20537;-82
2022/06/14 04:15:59;;;;;;;7.83;7.07;;;14.00;99.90;;;;;;6149496;23;20545;-81
2022/06/14 04:18:35;;;;;;;7.90;7.07;;;13.90;99.90;;;;;;6151810;23;20428;-81
2022/06/14 04:21:11;;;;;;;7.97;7.10;;;13.90;99.90;;;;;;6148135;23;20444;-81
2022/06/14 04:23:48;;;;;;;7.83;7.10;;;13.80;99.90;;;;;;6146028;23;20437;-81
2022/06/14 04:26:20;;;;;;;8.03;7.10;;;13.60;99.90;;;;;;6150527;23;20467;-81
2022/06/14 04:28:55;;;;;;;8.73;7.82;;;13.60;99.90;;;;;;6151028;23;20520;-81
2022/06/14 04:31:30;;;;;;;12.20;8.13;;;13.50;99.90;;;;;;6149577;23;20193;-81
2022/06/14 04:34:05;;;;;;;8.85;7.38;;;13.40;99.90;;;;;;6135060;23;20472;-81
2022/06/14 04:36:37;;;;;;;8.30;7.00;;;13.40;99.90;;;;;;6143179;23;20198;-82
2022/06/14 04:39:08;;;;;;;7.40;6.73;;;13.50;99.90;;;;;;6148463;23;20179;-81
2022/06/14 04:41:39;;;;;;;8.80;7.90;;;13.50;99.90;;;;;;6147572;23;20432;-79
2022/06/14 04:44:12;;;;;;;8.52;6.72;;;13.60;99.90;;;;;;6147613;23;20251;-80
2022/06/14 04:46:45;;;;;;;7.53;6.30;;;13.70;99.90;;;;;;6149515;23;20214;-78
2022/06/14 04:49:17;;;;;;;9.30;6.63;;;13.70;99.90;;;;;;6147651;23;20474;-78
2022/06/14 04:51:49;;;;;;;8.17;7.10;;;13.80;99.90;;;;;;6133063;23;20451;-78
2022/06/14 04:54:24;;;;;;;7.80;7.03;;;13.90;99.90;;;;;;6142132;23;20858;-78
2022/06/14 04:56:59;;;;;;;7.53;6.27;;;13.90;99.90;;;;;;6148831;23;20452;-78
2022/06/14 04:59:32;;;;;;;8.33;6.73;;;14.00;99.90;;;;;;6148617;23;20819;-78
2022/06/14 05:02:06;;;;;;;8.60;7.23;;;14.00;99.90;;;;;;6138295;23;20448;-81
2022/06/14 05:04:37;;;;;;;7.20;6.50;;;14.10;99.90;;;;;;6147928;23;20472;-76
2022/06/14 05:07:10;;;;;;;8.90;7.43;;;14.20;99.90;;;;;;6146375;23;20939;-78
2022/06/14 05:09:42;;;;;;;7.10;6.43;;;14.20;99.90;;;;;;6147630;23;20436;-77
2022/06/14 05:12:17;;;;;;;7.23;6.53;;;14.30;99.90;;;;;;6138838;23;20436;-79
2022/06/14 05:14:50;;;;;;;9.10;7.27;;;14.30;99.90;;;;;;6137711;23;20925;-78
2022/06/14 05:17:24;;;;;;;7.83;6.93;;;14.40;99.90;;;;;;6135545;23;20424;-81
2022/06/14 05:19:59;;;;;;;8.30;7.60;;;14.60;99.90;;;;;;6139035;23;20459;-79
2022/06/14 05:22:31;;;;;;;7.67;6.93;;;14.70;99.90;;;;;;6141621;23;20436;-80
2022/06/14 05:24:59;;;;;;;9.47;7.00;;;14.80;99.90;;;;;;6132432;23;20582;-80
2022/06/14 05:27:36;;;;;;;8.57;7.70;;;14.90;99.90;;;;;;6149137;23;20440;-81
2022/06/14 05:30:09;;;;;;;8.00;7.20;;;14.90;99.90;;;;;;6146886;23;20971;-78
2022/06/14 05:32:48;;;;;;;8.50;7.80;;;14.90;99.90;;;;;;6139894;23;20454;-78
2022/06/14 05:35:27;;;;;;;8.80;7.90;;;15.00;99.90;;;;;;6139595;23;20492;-79
2022/06/14 05:38:02;;;;;;;9.33;8.40;;;15.00;99.90;;;;;;6147251;23;20444;-78
2022/06/14 05:40:36;;;;;;;9.17;7.73;;;15.00;99.90;;;;;;6142036;23;20919;-78
2022/06/14 05:43:08;;;;;;;7.90;7.20;;;14.90;99.90;;;;;;6144184;23;20449;-78
2022/06/14 05:45:41;;;;;;;9.10;7.37;;;15.00;99.90;;;;;;6137632;23;20482;-80
2022/06/14 05:48:14;;;;;;;10.20;7.60;;;15.10;99.90;;;;;;6143385;23;20440;-78
2022/06/14 05:50:44;;;;;;;8.07;7.30;;;15.20;99.90;;;;;;6145864;23;20524;-78
2022/06/14 05:53:18;;;;;;;7.87;7.00;;;15.30;99.90;;;;;;6141124;23;20487;-77
2022/06/14 05:55:49;;;;;;;7.90;7.10;;;15.40;99.90;;;;;;6143067;23;20457;-78
2022/06/14 05:58:21;;;;;;;9.97;8.23;;;15.60;99.90;;;;;;6144226;23;20441;-78
2022/06/14 06:00:52;;;;;;;8.13;6.87;;;15.70;99.90;;;;;;6147659;23;20461;-79
2022/06/14 06:03:26;;;;;;;8.13;6.40;;;15.80;99.90;;;;;;6145272;23;20441;-79
2022/06/14 06:06:01;;;;;;;9.83;7.23;;;15.90;99.90;;;;;;6141143;23;20456;-78
2022/06/14 06:08:33;;;;;;;7.67;6.97;;;16.10;99.90;;;;;;6142902;23;20428;-78
2022/06/14 06:11:07;;;;;;;8.30;7.43;;;16.20;99.90;;;;;;6150349;23;20451;-79
2022/06/14 06:13:38;;;;;;;9.53;7.30;;;16.20;99.90;;;;;;6147933;23;20461;-79
2022/06/14 06:16:09;;;;;;;7.60;6.90;;;16.30;99.90;;;;;;6148760;23;20569;-79
2022/06/14 06:18:43;;;;;;;7.93;7.13;;;16.30;99.90;;;;;;6148135;23;20444;-79
2022/06/14 06:21:20;;;;;;;8.43;7.33;;;16.40;99.90;;;;;;6141952;23;20441;-78
2022/06/14 06:23:52;;;;;;;7.60;6.90;;;16.40;99.90;;;;;;6140485;23;20953;-79
2022/06/14 06:26:22;;;;;;;7.50;6.80;;;16.50;99.90;;;;;;6149679;23;20456;-79
2022/06/14 06:28:55;;;;;;;7.63;6.93;;;16.50;99.90;;;;;;6140396;23;20511;-79
2022/06/14 06:31:25;;;;;;;7.90;7.20;;;16.70;99.90;;;;;;6140420;23;20483;-79
2022/06/14 06:33:56;;;;;;;9.43;6.20;;;16.80;99.90;;;;;;6135664;23;20506;-80
2022/06/14 06:36:44;;;;;;;6.40;5.80;;;16.80;99.90;;;;;;6130492;23;20433;-80
2022/06/14 06:39:32;;;;;;;7.10;6.33;;;16.90;99.90;;;;;;6142186;23;20440;-80
2022/06/14 06:42:05;;;;;;;8.13;6.97;;;17.10;99.90;;;;;;6115350;23;21010;-79
2022/06/14 06:44:39;;;;;;;7.50;6.80;;;17.30;99.90;;;;;;6139089;23;20475;-80
2022/06/14 06:47:12;;;;;;;7.90;6.47;;;17.40;99.90;;;;;;6144887;23;20511;-80
2022/06/14 06:49:53;;;;;;;7.50;6.30;;;17.50;99.90;;;;;;6142694;23;20436;-80
2022/06/14 06:52:24;;;;;;;7.53;6.80;;;17.60;99.90;;;;;;6140497;23;20432;-80
2022/06/14 06:55:00;;;;;;;6.17;5.57;;;17.70;99.90;;;;;;6135067;23;20808;-80
2022/06/14 06:57:31;;;;;;;8.67;6.30;;;17.70;99.90;;;;;;6145596;23;20448;-79
2022/06/14 07:00:00;;;;;;;7.07;6.30;;;17.70;99.90;;;;;;6141059;23;20439;-80
2022/06/14 07:02:34;;;;;;;7.00;5.70;;;17.70;99.90;;;;;;6155104;23;20449;-80
2022/06/14 07:05:05;;;;;;;6.77;5.47;;;17.80;99.90;;;;;;6137452;23;20537;-80
2022/06/14 07:07:41;;;;;;;5.87;5.37;;;17.90;99.90;;;;;;6144198;23;20448;-80
2022/06/14 07:10:20;;;;;;;6.20;4.43;;;18.00;99.90;;;;;;6146095;23;20432;-80
2022/06/14 07:12:52;;;;;;;5.37;4.70;;;18.10;99.90;;;;;;6146366;23;20470;-80
2022/06/14 07:15:27;;;;;;;6.53;5.13;;;18.30;99.90;;;;;;6114222;23;20467;-80
2022/06/14 07:18:01;;;;;;;6.67;4.73;;;18.30;99.90;;;;;;6143320;23;20441;-80
2022/06/14 07:20:37;;;;;;;7.97;5.37;;;18.40;99.90;;;;;;6142336;23;21239;-81
2022/06/14 07:23:13;;;;;;;5.60;4.83;;;18.50;99.90;;;;;;6140299;23;20452;-79
2022/06/14 07:25:51;;;;;;;5.53;5.03;;;18.60;99.90;;;;;;6143198;23;20496;-80
2022/06/14 07:28:23;;;;;;;7.50;5.20;;;18.70;99.90;;;;;;6148849;23;20440;-79
2022/06/14 07:30:54;;;;;;;6.13;5.13;;;18.90;99.90;;;;;;6143642;23;20532;-81
2022/06/14 07:33:25;;;;;;;7.83;4.70;;;19.10;99.90;;;;;;6146877;23;20448;-80
2022/06/14 07:35:57;;;;;;;6.97;4.77;;;19.40;99.90;;;;;;6146151;23;20440;-80
2022/06/14 07:38:30;;;;;;;7.87;4.53;;;19.60;99.90;;;;;;6134565;23;20454;-81
2022/06/14 07:41:05;;;;;;;5.70;4.53;;;19.80;99.90;;;;;;6145106;23;20464;-80
2022/06/14 07:43:40;;;;;;;12.33;4.73;;;20.10;99.90;;;;;;6146190;23;20467;-82
2022/06/14 07:46:12;;;;;;;6.97;4.83;;;20.30;99.90;;;;;;6142020;23;20499;-81
2022/06/14 07:48:46;;;;;;;5.60;5.00;;;20.60;99.90;;;;;;6140591;23;20451;-81
2022/06/14 07:51:24;;;;;;;6.47;4.03;;;21.10;99.90;;;;;;6152404;23;20464;-81
2022/06/14 07:53:58;;;;;;;5.73;4.37;;;21.80;99.90;;;;;;6161940;23;20476;-78
2022/06/14 07:56:31;;;;;;;5.37;4.57;;;22.70;99.90;;;;;;6164799;23;20433;-80
2022/06/14 07:59:03;;;;;;;5.03;4.53;;;23.70;98.30;;;;;;6131716;23;20430;-81
2022/06/14 08:01:35;;;;;;;5.50;4.90;;;24.50;96.70;;;;;;6148088;23;20441;-79
2022/06/14 08:04:07;;;;;;;5.00;4.50;;;24.90;94.00;;;;;;6154330;23;20441;-80
2022/06/14 08:06:39;;;;;;;5.60;4.77;;;25.00;92.20;;;;;;6182417;23;20435;-80
2022/06/14 08:09:13;;;;;;;6.00;4.30;;;25.40;91.80;;;;;;6166534;23;20560;-80
2022/06/14 08:11:45;;;;;;;4.83;4.17;;;25.90;90.00;;;;;;6160829;23;20519;-81
2022/06/14 08:14:23;;;;;;;5.43;4.93;;;26.10;90.40;;;;;;6144365;23;20544;-80
2022/06/14 08:16:56;;;;;;;5.90;5.07;;;26.50;88.20;;;;;;6147354;23;20527;-80
2022/06/14 08:19:29;;;;;;;6.03;4.27;;;26.80;86.90;;;;;;6143843;23;20457;-81
2022/06/14 08:22:05;;;;;;;4.30;3.90;;;27.10;85.60;;;;;;6145233;23;20523;-80
2022/06/14 08:24:40;;;;;;;5.07;4.60;;;27.40;81.90;;;;;;6141655;23;20447;-79
2022/06/14 08:27:13;;;;;;;5.43;4.80;;;27.80;79.70;;;;;;6139516;23;20434;-80
2022/06/14 08:29:45;;;;;;;4.50;4.10;;;28.30;76.60;;;;;;6144641;23;20959;-81
2022/06/14 08:32:18;;;;;;;5.23;4.07;;;28.10;73.10;;;;;;6143123;23;20799;-81
2022/06/14 08:34:51;;;;;;;4.57;4.07;;;28.00;72.40;;;;;;6134538;23;20850;-80
2022/06/14 15:09:58;;;;;;;3.13;2.50;;;40.80;33.10;;;;;;6150298;22;20440;-77
2022/06/14 15:12:28;;;;;;;3.13;2.93;;;40.10;34.20;;;;;;6151129;23;20240;-78
2022/06/14 15:15:04;;;;;;;3.70;3.30;;;40.20;34.00;;;;;;6146352;23;20447;-78
2022/06/14 15:20:21;;;;;;;2.57;2.43;;;42.20;33.70;;;;;;6149376;23;20755;-78
2022/06/14 15:22:50;;;;;;;3.43;3.13;;;43.00;32.70;;;;;;6151347;23;20439;-78
2022/06/14 15:25:23;;;;;;;3.40;3.10;;;41.90;32.40;;;;;;6147859;23;20947;-80
2022/06/14 15:27:52;;;;;;;4.70;2.77;;;40.80;33.30;;;;;;6147956;23;20499;-77
2022/06/14 15:30:37;;;;;;;3.70;3.23;;;40.10;33.90;;;;;;6133927;23;20442;-78
2022/06/14 15:33:23;;;;;;;3.33;3.03;;;39.90;34.10;;;;;;6142704;23;20512;-77
2022/06/14 15:35:54;;;;;;;4.33;2.87;;;39.30;34.20;;;;;;6157939;23;20518;-78
2022/06/14 15:38:27;;;;;;;3.77;3.47;;;39.30;35.30;;;;;;6164071;23;20470;-76
2022/06/14 15:41:14;;;;;;;4.13;3.00;;;38.40;34.80;;;;;;6166331;23;20445;-76
2022/06/14 15:43:53;;;;;;;2.80;2.60;;;38.10;35.90;;;;;;6163730;23;20428;-78
2022/06/14 15:46:24;;;;;;;3.20;2.90;;;37.60;36.00;;;;;;6164900;23;20458;-78
2022/06/14 15:49:02;;;;;;;3.30;3.00;;;37.40;36.30;;;;;;6155427;23;20554;-77
2022/06/14 15:51:31;;;;;;;3.43;3.13;;;36.90;37.40;;;;;;6159348;23;20464;-79
2022/06/14 15:54:00;;;;;;;3.47;3.17;;;36.30;37.60;;;;;;6146814;23;20516;-78
2022/06/14 15:56:31;;;;;;;3.63;3.20;;;35.40;38.00;;;;;;6168384;23;20443;-77
2022/06/14 15:59:01;;;;;;;3.60;3.27;;;34.20;39.30;;;;;;6145002;23;20431;-77
2022/06/14 16:01:33;;;;;;;3.40;3.10;;;32.90;40.60;;;;;;6142895;23;20428;-77
2022/06/14 16:04:04;;;;;;;2.83;2.63;;;32.00;41.80;;;;;;6151922;23;20460;-78
2022/06/14 16:06:37;;;;;;;3.67;3.37;;;30.80;43.10;;;;;;6147230;23;20563;-78
2022/06/14 16:09:10;;;;;;;3.37;3.07;;;30.10;44.20;;;;;;6154177;23;20829;-78
2022/06/14 16:11:47;;;;;;;4.00;3.50;;;29.30;45.10;;;;;;6161388;23;21012;-79
2022/06/14 16:14:18;;;;;;;3.83;3.30;;;29.00;46.00;;;;;;6158981;23;20435;-78
2022/06/14 16:17:01;;;;;;;3.07;2.80;;;28.80;46.30;;;;;;6148922;23;20463;-77
2022/06/14 16:19:32;;;;;;;3.20;2.90;;;28.60;45.70;;;;;;6147220;23;20425;-77
2022/06/14 16:22:04;;;;;;;3.40;3.10;;;28.40;47.20;;;;;;6153078;23;20432;-77
2022/06/14 16:24:35;;;;;;;3.40;2.63;;;28.20;47.10;;;;;;6151463;23;20436;-77
2022/06/14 16:27:19;;;;;;;4.03;3.60;;;27.90;48.40;;;;;;6138224;23;20451;-77
2022/06/14 16:29:59;;;;;;;3.23;2.93;;;27.60;48.60;;;;;;6149370;23;20532;-77
2022/06/14 16:32:37;;;;;;;3.80;3.13;;;27.30;49.50;;;;;;6147284;23;20475;-77
2022/06/14 16:35:12;;;;;;;2.90;2.70;;;27.20;49.80;;;;;;6143130;23;21111;-78
2022/06/14 16:37:46;;;;;;;3.80;3.47;;;27.10;49.40;;;;;;6149493;23;20592;-77
2022/06/14 16:40:17;;;;;;;4.10;3.20;;;27.10;50.20;;;;;;6157284;23;20973;-78
2022/06/14 16:42:53;;;;;;;3.23;2.93;;;27.10;50.50;;;;;;6140483;23;20434;-77
2022/06/14 16:45:29;;;;;;;3.50;3.20;;;27.00;51.30;;;;;;6152293;23;20432;-77
2022/06/14 16:48:04;;;;;;;3.27;2.97;;;27.10;52.20;;;;;;6152399;23;20498;-78
2022/06/14 16:50:40;;;;;;;3.40;3.10;;;27.10;51.10;;;;;;6150715;23;20497;-78
2022/06/14 16:53:16;;;;;;;3.37;3.07;;;27.10;49.90;;;;;;6145263;23;20458;-78
2022/06/14 16:55:53;;;;;;;3.93;3.53;;;27.00;49.80;;;;;;6145745;23;20443;-81
2022/06/14 16:58:32;;;;;;;3.47;3.20;;;26.90;49.80;;;;;;6139918;23;20467;-76
2022/06/14 17:01:08;;;;;;;3.70;3.20;;;26.80;50.30;;;;;;6143068;23;20492;-76
2022/06/14 17:03:43;;;;;;;3.70;3.40;;;26.90;50.20;;;;;;6142346;23;20437;-77
2022/06/14 17:06:26;;;;;;;5.17;3.30;;;26.90;50.50;;;;;;6137525;23;20475;-79
2022/06/14 17:09:12;;;;;;;3.27;2.93;;;26.90;51.10;;;;;;6152462;23;20467;-80
2022/06/14 17:11:46;;;;;;;3.37;2.90;;;26.80;50.90;;;;;;6141738;23;20496;-81
2022/06/14 17:14:18;;;;;;;3.23;2.90;;;26.80;51.10;;;;;;6142423;23;20490;-94
2022/06/14 17:16:51;;;;;;;5.40;2.73;;;26.80;49.70;;;;;;6145596;23;20460;-94
2022/06/14 17:19:23;;;;;;;3.73;3.37;;;26.80;49.90;;;;;;6141167;23;21345;-81
2022/06/14 17:22:01;;;;;;;4.03;3.20;;;26.80;50.30;;;;;;6142242;23;20429;-81
2022/06/14 17:24:45;;;;;;;3.87;3.10;;;26.80;51.70;;;;;;6159554;23;21042;-80
2022/06/14 17:30:12;;;;;;;3.33;3.00;;;26.60;52.10;;;;;;6136702;23;20510;-81
2022/06/14 17:32:55;;;;;;;3.57;2.90;;;26.60;52.40;;;;;;6125825;23;20486;-80
2022/06/14 17:35:28;;;;;;;3.30;3.00;;;26.50;52.40;;;;;;6122636;23;20457;-80
2022/06/14 17:38:05;;;;;;;3.47;3.27;;;26.50;52.50;;;;;;6122956;23;20462;-81
2022/06/14 17:40:37;;;;;;;4.83;3.20;;;26.40;53.00;;;;;;6131253;23;20526;-81
2022/06/14 17:43:11;;;;;;;3.47;3.17;;;26.40;53.80;;;;;;6126041;23;20424;-81
2022/06/14 17:45:47;;;;;;;3.73;3.33;;;26.30;55.00;;;;;;6136819;23;20901;-80
2022/06/14 17:48:23;;;;;;;3.53;3.20;;;26.30;55.20;;;;;;6126501;23;20502;-80
2022/06/14 17:50:57;;;;;;;3.87;3.57;;;26.10;55.90;;;;;;6152581;23;20448;-80
2022/06/14 17:53:33;;;;;;;4.67;3.47;;;26.10;56.30;;;;;;6148961;23;20459;-82
2022/06/14 17:56:09;;;;;;;3.53;3.23;;;26.00;56.20;;;;;;6147004;23;20469;-81
2022/06/14 17:58:47;;;;;;;3.87;3.47;;;26.00;57.30;;;;;;6122412;23;20494;-81
2022/06/14 18:01:23;;;;;;;3.60;3.30;;;25.90;56.80;;;;;;6123556;23;20483;-81
2022/06/14 18:04:08;;;;;;;3.50;3.20;;;25.90;57.80;;;;;;6132597;23;20456;-80
2022/06/14 18:06:47;;;;;;;3.97;3.50;;;25.80;58.10;;;;;;6119907;23;20485;-80
2022/06/14 18:09:15;;;;;;;3.70;3.30;;;25.80;57.30;;;;;;6129555;23;20462;-81
2022/06/14 18:11:54;;;;;;;3.60;3.30;;;25.70;58.30;;;;;;6146890;23;20471;-81
2022/06/14 18:14:28;;;;;;;4.17;3.27;;;25.70;57.70;;;;;;6146967;23;20468;-81
2022/06/14 18:16:58;;;;;;;3.70;3.40;;;25.60;57.90;;;;;;6127977;23;20761;-80
2022/06/14 18:22:34;;;;;;;3.40;3.10;;;25.40;58.50;;;;;;6142940;23;20524;-81
2022/06/14 18:25:05;;;;;;;3.87;3.27;;;25.30;57.70;;;;;;6149164;23;20519;-81
2022/06/14 18:27:34;;;;;;;5.00;3.60;;;25.20;58.50;;;;;;6147205;23;20948;-81
2022/06/14 18:30:06;;;;;;;4.03;3.30;;;25.20;58.40;;;;;;6146343;23;20503;-81
2022/06/14 18:32:43;;;;;;;3.80;3.37;;;25.10;58.80;;;;;;6129962;23;20958;-81
2022/06/14 18:35:13;;;;;;;4.27;3.60;;;25.10;59.20;;;;;;6126488;23;20441;-80
2022/06/14 18:37:44;;;;;;;4.20;3.50;;;25.10;59.80;;;;;;6123197;23;20496;-81
2022/06/14 18:40:25;;;;;;;3.50;3.20;;;25.00;59.60;;;;;;6133714;23;20445;-81
2022/06/14 18:43:14;;;;;;;4.37;3.53;;;25.00;59.30;;;;;;6143518;23;20506;-80
2022/06/14 18:45:57;;;;;;;4.67;3.60;;;24.90;60.00;;;;;;6138390;23;20501;-81
2022/06/14 18:48:46;;;;;;;4.07;3.40;;;24.80;60.40;;;;;;6151629;23;20478;-81
2022/06/14 18:51:34;;;;;;;4.00;3.30;;;24.70;59.70;;;;;;6142655;23;20436;-81
2022/06/14 18:54:09;;;;;;;4.07;3.67;;;24.70;60.60;;;;;;6127344;23;20437;-81
2022/06/14 18:56:42;;;;;;;4.00;3.40;;;24.60;60.80;;;;;;6122517;23;20460;-81
2022/06/14 18:59:15;;;;;;;3.90;3.50;;;24.50;60.50;;;;;;6139724;23;20445;-81
2022/06/14 19:01:43;;;;;;;3.53;3.23;;;24.50;61.20;;;;;;6131499;23;20441;-81
2022/06/14 19:04:27;;;;;;;4.27;3.30;;;24.40;60.80;;;;;;6150864;23;20432;-80
2022/06/14 19:07:16;;;;;;;3.57;3.23;;;24.40;61.30;;;;;;6121788;23;20453;-81
2022/06/14 19:10:02;;;;;;;4.30;3.20;;;24.30;61.80;;;;;;6127170;23;20465;-81
2022/06/14 19:12:46;;;;;;;4.40;4.00;;;24.30;62.10;;;;;;6131539;23;20444;-80
2022/06/14 19:15:26;;;;;;;5.07;3.93;;;24.10;62.20;;;;;;6130043;23;20433;-81
2022/06/14 19:18:30;;;;;;;5.17;4.00;;;24.10;62.80;;;;;;6126295;23;20456;-81
2022/06/14 19:21:19;;;;;;;4.53;3.73;;;23.90;62.90;;;;;;6117666;23;20758;-81
2022/06/14 19:24:08;;;;;;;4.37;3.70;;;23.80;63.30;;;;;;6125568;23;20506;-81
2022/06/14 19:26:44;;;;;;;4.73;3.70;;;23.70;63.20;;;;;;6120555;23;20450;-81
2022/06/14 19:29:30;;;;;;;4.83;3.77;;;23.70;64.00;;;;;;6121275;23;20808;-80
2022/06/14 19:32:06;;;;;;;3.93;3.57;;;23.60;64.40;;;;;;6126646;23;20454;-81
2022/06/14 19:34:41;;;;;;;5.27;4.40;;;23.50;64.70;;;;;;6129856;23;20444;-81
2022/06/14 19:37:23;;;;;;;3.63;3.33;;;23.40;65.90;;;;;;6138675;23;20491;-81
2022/06/14 19:39:59;;;;;;;3.97;3.67;;;23.30;65.70;;;;;;6126700;23;20442;-81
2022/06/14 19:42:33;;;;;;;4.00;3.70;;;23.40;66.60;;;;;;6130965;23;20432;-80
2022/06/14 19:45:08;;;;;;;4.07;3.63;;;23.30;66.60;;;;;;6135220;23;20517;-81
2022/06/14 19:47:40;;;;;;;4.60;4.20;;;23.10;66.90;;;;;;6129149;23;20456;-83
2022/06/14 19:50:28;;;;;;;4.47;4.07;;;23.10;67.60;;;;;;6112756;23;20469;-81
